sensor_id;sensor_type;location;lat;lon;timestamp;P1;durP1;ratioP1;P2;durP2;ratioP2
982;SDS011;480;48.124;11.578;2022-11-20T00:01:13;1.60;;;1.50;;
982;SDS011;480;48.124;11.578;2022-11-20T00:03:42;2.20;;;1.60;;
982;SDS011;480;48.124;11.578;2022-11-20T00:06:11;2.33;;;2.13;;
982;SDS011;480;48.124;11.578;2022-11-20T00:08:40;1.90;;;1.80;;
982;SDS011;480;48.124;11.578;2022-11-20T00:11:12;4.17;;;1.97;;
982;SDS011;480;48.124;11.578;2022-11-20T00:13:40;1.93;;;1.73;;
982;SDS011;480;48.124;11.578;2022-11-20T00:16:08;2.73;;;1.90;;
982;SDS011;480;48.124;11.578;2022-11-20T00:18:37;1.80;;;1.70;;
982;SDS011;480;48.124;11.578;2022-11-20T00:21:04;1.53;;;1.40;;
982;SDS011;480;48.124;11.578;2022-11-20T00:23:34;3.80;;;2.90;;
982;SDS011;480;48.124;11.578;2022-11-20T00:26:01;2.30;;;2.03;;
982;SDS011;480;48.124;11.578;2022-11-20T00:28:29;1.70;;;1.60;;
982;SDS011;480;48.124;11.578;2022-11-20T00:31:00;1.77;;;1.67;;
982;SDS011;480;48.124;11.578;2022-11-20T00:33:29;2.47;;;1.97;;
982;SDS011;480;48.124;11.578;2022-11-20T00:35:58;2.00;;;1.90;;
982;SDS011;480;48.124;11.578;2022-11-20T00:38:27;6.33;;;1.90;;
982;SDS011;480;48.124;11.578;2022-11-20T00:40:56;3.53;;;2.43;;
982;SDS011;480;48.124;11.578;2022-11-20T00:43:24;4.43;;;2.60;;
982;SDS011;480;48.124;11.578;2022-11-20T00:45:51;2.90;;;1.90;;
982;SDS011;480;48.124;11.578;2022-11-20T00:48:23;3.10;;;2.47;;
982;SDS011;480;48.124;11.578;2022-11-20T00:50:50;1.83;;;1.73;;
982;SDS011;480;48.124;11.578;2022-11-20T00:53:17;2.80;;;2.53;;
982;SDS011;480;48.124;11.578;2022-11-20T00:55:52;1.90;;;1.73;;
982;SDS011;480;48.124;11.578;2022-11-20T00:58:21;4.90;;;1.80;;
982;SDS011;480;48.124;11.578;2022-11-20T01:00:49;2.00;;;1.37;;
982;SDS011;480;48.124;11.578;2022-11-20T01:03:16;2.50;;;2.30;;
982;SDS011;480;48.124;11.578;2022-11-20T01:05:44;3.47;;;2.30;;
982;SDS011;480;48.124;11.578;2022-11-20T01:08:11;2.13;;;2.03;;
982;SDS011;480;48.124;11.578;2022-11-20T01:10:38;2.13;;;1.70;;
982;SDS011;480;48.124;11.578;2022-11-20T01:13:05;2.43;;;2.23;;
982;SDS011;480;48.124;11.578;2022-11-20T01:15:50;2.30;;;2.10;;
982;SDS011;480;48.124;11.578;2022-11-20T01:18:18;4.03;;;2.30;;
982;SDS011;480;48.124;11.578;2022-11-20T01:20:44;2.40;;;2.20;;
982;SDS011;480;48.124;11.578;2022-11-20T01:23:11;2.23;;;2.13;;
982;SDS011;480;48.124;11.578;2022-11-20T01:25:38;3.00;;;2.80;;
982;SDS011;480;48.124;11.578;2022-11-20T01:28:05;3.30;;;2.67;;
982;SDS011;480;48.124;11.578;2022-11-20T01:30:33;3.30;;;2.20;;
982;SDS011;480;48.124;11.578;2022-11-20T01:33:01;1.97;;;1.87;;
982;SDS011;480;48.124;11.578;2022-11-20T01:35:28;2.67;;;2.47;;
982;SDS011;480;48.124;11.578;2022-11-20T01:37:55;2.50;;;2.30;;
982;SDS011;480;48.124;11.578;2022-11-20T01:40:22;1.50;;;1.40;;
982;SDS011;480;48.124;11.578;2022-11-20T01:42:52;1.70;;;1.60;;
982;SDS011;480;48.124;11.578;2022-11-20T01:48:35;2.20;;;1.90;;
982;SDS011;480;48.124;11.578;2022-11-20T01:51:06;2.87;;;2.40;;
982;SDS011;480;48.124;11.578;2022-11-20T01:53:39;2.90;;;2.50;;
982;SDS011;480;48.124;11.578;2022-11-20T01:56:07;2.47;;;2.07;;
982;SDS011;480;48.124;11.578;2022-11-20T01:58:37;2.63;;;2.43;;
982;SDS011;480;48.124;11.578;2022-11-20T02:01:08;4.60;;;1.50;;
982;SDS011;480;48.124;11.578;2022-11-20T02:03:36;2.50;;;2.30;;
982;SDS011;480;48.124;11.578;2022-11-20T02:06:04;2.10;;;2.00;;
982;SDS011;480;48.124;11.578;2022-11-20T02:08:37;2.00;;;1.87;;
982;SDS011;480;48.124;11.578;2022-11-20T02:11:05;1.90;;;1.80;;
982;SDS011;480;48.124;11.578;2022-11-20T02:13:33;2.50;;;2.30;;
982;SDS011;480;48.124;11.578;2022-11-20T02:16:09;2.10;;;1.67;;
982;SDS011;480;48.124;11.578;2022-11-20T02:18:40;3.27;;;2.00;;
982;SDS011;480;48.124;11.578;2022-11-20T02:21:09;1.97;;;1.83;;
982;SDS011;480;48.124;11.578;2022-11-20T02:23:59;2.07;;;1.97;;
982;SDS011;480;48.124;11.578;2022-11-20T02:26:31;1.80;;;1.70;;
982;SDS011;480;48.124;11.578;2022-11-20T02:29:02;1.80;;;1.70;;
982;SDS011;480;48.124;11.578;2022-11-20T02:31:34;1.90;;;1.70;;
982;SDS011;480;48.124;11.578;2022-11-20T02:34:03;3.07;;;1.63;;
982;SDS011;480;48.124;11.578;2022-11-20T02:36:30;3.10;;;2.50;;
982;SDS011;480;48.124;11.578;2022-11-20T02:39:00;1.90;;;1.80;;
982;SDS011;480;48.124;11.578;2022-11-20T02:41:32;2.53;;;2.33;;
982;SDS011;480;48.124;11.578;2022-11-20T02:44:00;2.60;;;1.73;;
982;SDS011;480;48.124;11.578;2022-11-20T02:46:27;1.50;;;1.40;;
982;SDS011;480;48.124;11.578;2022-11-20T02:48:55;2.03;;;1.83;;
982;SDS011;480;48.124;11.578;2022-11-20T02:51:22;3.27;;;2.30;;
982;SDS011;480;48.124;11.578;2022-11-20T02:53:50;1.73;;;1.63;;
982;SDS011;480;48.124;11.578;2022-11-20T02:56:19;4.90;;;2.40;;
982;SDS011;480;48.124;11.578;2022-11-20T02:58:46;2.77;;;2.50;;
982;SDS011;480;48.124;11.578;2022-11-20T03:01:13;4.10;;;3.47;;
982;SDS011;480;48.124;11.578;2022-11-20T03:03:40;2.90;;;2.70;;
982;SDS011;480;48.124;11.578;2022-11-20T03:06:08;4.33;;;2.83;;
982;SDS011;480;48.124;11.578;2022-11-20T03:08:35;3.03;;;2.73;;
982;SDS011;480;48.124;11.578;2022-11-20T03:11:03;1.50;;;1.40;;
982;SDS011;480;48.124;11.578;2022-11-20T03:13:32;2.30;;;2.00;;
982;SDS011;480;48.124;11.578;2022-11-20T03:16:10;2.73;;;2.13;;
982;SDS011;480;48.124;11.578;2022-11-20T03:18:38;3.70;;;2.70;;
982;SDS011;480;48.124;11.578;2022-11-20T03:21:07;2.27;;;1.83;;
982;SDS011;480;48.124;11.578;2022-11-20T03:23:34;2.70;;;1.87;;
982;SDS011;480;48.124;11.578;2022-11-20T03:26:12;6.13;;;2.20;;
982;SDS011;480;48.124;11.578;2022-11-20T03:28:42;3.63;;;2.77;;
982;SDS011;480;48.124;11.578;2022-11-20T03:31:13;2.93;;;2.00;;
982;SDS011;480;48.124;11.578;2022-11-20T03:33:41;1.90;;;1.80;;
982;SDS011;480;48.124;11.578;2022-11-20T03:36:10;2.87;;;2.67;;
982;SDS011;480;48.124;11.578;2022-11-20T03:38:39;2.63;;;1.97;;
982;SDS011;480;48.124;11.578;2022-11-20T03:41:07;2.93;;;2.00;;
982;SDS011;480;48.124;11.578;2022-11-20T03:43:36;4.93;;;1.67;;
982;SDS011;480;48.124;11.578;2022-11-20T03:46:04;2.43;;;2.23;;
982;SDS011;480;48.124;11.578;2022-11-20T03:48:32;3.03;;;2.73;;
982;SDS011;480;48.124;11.578;2022-11-20T03:51:06;2.23;;;1.90;;
982;SDS011;480;48.124;11.578;2022-11-20T03:53:34;3.30;;;2.50;;
982;SDS011;480;48.124;11.578;2022-11-20T03:56:01;2.60;;;1.97;;
982;SDS011;480;48.124;11.578;2022-11-20T03:58:29;2.97;;;1.60;;
982;SDS011;480;48.124;11.578;2022-11-20T04:00:56;4.10;;;1.93;;
982;SDS011;480;48.124;11.578;2022-11-20T04:03:24;2.43;;;2.23;;
982;SDS011;480;48.124;11.578;2022-11-20T04:05:52;2.17;;;1.97;;
982;SDS011;480;48.124;11.578;2022-11-20T04:08:19;2.33;;;2.13;;
982;SDS011;480;48.124;11.578;2022-11-20T04:10:46;2.80;;;2.23;;
982;SDS011;480;48.124;11.578;2022-11-20T04:13:13;2.50;;;2.30;;
982;SDS011;480;48.124;11.578;2022-11-20T04:15:40;2.80;;;2.60;;
982;SDS011;480;48.124;11.578;2022-11-20T04:18:07;2.43;;;2.23;;
982;SDS011;480;48.124;11.578;2022-11-20T04:20:36;2.23;;;2.03;;
982;SDS011;480;48.124;11.578;2022-11-20T04:23:03;3.93;;;3.53;;
982;SDS011;480;48.124;11.578;2022-11-20T04:25:30;3.17;;;2.93;;
982;SDS011;480;48.124;11.578;2022-11-20T04:27:57;6.30;;;1.70;;
982;SDS011;480;48.124;11.578;2022-11-20T04:30:24;3.17;;;2.67;;
982;SDS011;480;48.124;11.578;2022-11-20T04:32:51;2.00;;;1.90;;
982;SDS011;480;48.124;11.578;2022-11-20T04:35:18;3.10;;;2.90;;
982;SDS011;480;48.124;11.578;2022-11-20T04:37:47;2.80;;;2.60;;
982;SDS011;480;48.124;11.578;2022-11-20T04:40:17;2.67;;;2.30;;
982;SDS011;480;48.124;11.578;2022-11-20T04:42:44;2.30;;;2.10;;
982;SDS011;480;48.124;11.578;2022-11-20T04:45:11;2.73;;;2.53;;
982;SDS011;480;48.124;11.578;2022-11-20T04:47:38;3.17;;;2.80;;
982;SDS011;480;48.124;11.578;2022-11-20T04:50:05;1.70;;;1.60;;
982;SDS011;480;48.124;11.578;2022-11-20T04:52:33;2.13;;;2.03;;
982;SDS011;480;48.124;11.578;2022-11-20T04:55:01;3.33;;;2.50;;
982;SDS011;480;48.124;11.578;2022-11-20T04:57:28;5.67;;;2.60;;
982;SDS011;480;48.124;11.578;2022-11-20T04:59:55;2.40;;;1.83;;
982;SDS011;480;48.124;11.578;2022-11-20T05:02:22;3.27;;;2.57;;
982;SDS011;480;48.124;11.578;2022-11-20T05:04:49;5.87;;;3.37;;
982;SDS011;480;48.124;11.578;2022-11-20T05:07:16;4.77;;;3.00;;
982;SDS011;480;48.124;11.578;2022-11-20T05:09:43;3.03;;;2.80;;
982;SDS011;480;48.124;11.578;2022-11-20T05:12:12;2.80;;;2.60;;
982;SDS011;480;48.124;11.578;2022-11-20T05:14:39;2.80;;;2.50;;
982;SDS011;480;48.124;11.578;2022-11-20T05:17:06;2.40;;;2.10;;
982;SDS011;480;48.124;11.578;2022-11-20T05:19:36;2.70;;;2.20;;
982;SDS011;480;48.124;11.578;2022-11-20T05:22:03;3.50;;;2.77;;
982;SDS011;480;48.124;11.578;2022-11-20T05:24:31;2.60;;;2.40;;
982;SDS011;480;48.124;11.578;2022-11-20T05:26:57;2.10;;;1.87;;
982;SDS011;480;48.124;11.578;2022-11-20T05:29:26;2.63;;;2.43;;
982;SDS011;480;48.124;11.578;2022-11-20T05:31:53;2.57;;;2.37;;
982;SDS011;480;48.124;11.578;2022-11-20T05:34:20;2.13;;;1.93;;
982;SDS011;480;48.124;11.578;2022-11-20T05:36:47;3.10;;;2.50;;
982;SDS011;480;48.124;11.578;2022-11-20T05:39:14;2.50;;;2.30;;
982;SDS011;480;48.124;11.578;2022-11-20T05:41:41;3.10;;;2.73;;
982;SDS011;480;48.124;11.578;2022-11-20T05:44:09;2.70;;;2.50;;
982;SDS011;480;48.124;11.578;2022-11-20T05:46:38;2.57;;;2.47;;
982;SDS011;480;48.124;11.578;2022-11-20T05:49:05;3.03;;;2.00;;
982;SDS011;480;48.124;11.578;2022-11-20T05:51:32;2.30;;;2.10;;
982;SDS011;480;48.124;11.578;2022-11-20T05:53:59;2.37;;;2.10;;
982;SDS011;480;48.124;11.578;2022-11-20T05:56:26;2.50;;;2.30;;
982;SDS011;480;48.124;11.578;2022-11-20T05:58:53;3.53;;;3.10;;
982;SDS011;480;48.124;11.578;2022-11-20T06:01:21;2.40;;;2.20;;
982;SDS011;480;48.124;11.578;2022-11-20T06:03:51;1.63;;;1.53;;
982;SDS011;480;48.124;11.578;2022-11-20T06:06:19;3.00;;;1.90;;
982;SDS011;480;48.124;11.578;2022-11-20T06:08:47;1.90;;;1.80;;
982;SDS011;480;48.124;11.578;2022-11-20T06:11:15;4.17;;;2.30;;
982;SDS011;480;48.124;11.578;2022-11-20T06:13:42;3.80;;;2.17;;
982;SDS011;480;48.124;11.578;2022-11-20T06:16:10;1.93;;;1.83;;
982;SDS011;480;48.124;11.578;2022-11-20T06:18:40;3.00;;;2.63;;
982;SDS011;480;48.124;11.578;2022-11-20T06:21:09;2.10;;;2.00;;
982;SDS011;480;48.124;11.578;2022-11-20T06:23:37;1.97;;;1.87;;
982;SDS011;480;48.124;11.578;2022-11-20T06:26:05;1.60;;;1.50;;
982;SDS011;480;48.124;11.578;2022-11-20T06:28:33;1.73;;;1.63;;
982;SDS011;480;48.124;11.578;2022-11-20T06:31:01;2.27;;;2.00;;
982;SDS011;480;48.124;11.578;2022-11-20T06:33:29;1.87;;;1.77;;
982;SDS011;480;48.124;11.578;2022-11-20T06:35:56;2.43;;;1.70;;
982;SDS011;480;48.124;11.578;2022-11-20T06:38:25;3.60;;;1.80;;
982;SDS011;480;48.124;11.578;2022-11-20T06:40:53;1.40;;;1.30;;
982;SDS011;480;48.124;11.578;2022-11-20T06:43:21;1.80;;;1.60;;
982;SDS011;480;48.124;11.578;2022-11-20T06:45:51;1.77;;;1.67;;
982;SDS011;480;48.124;11.578;2022-11-20T06:48:18;2.80;;;1.90;;
982;SDS011;480;48.124;11.578;2022-11-20T06:50:45;5.00;;;1.80;;
982;SDS011;480;48.124;11.578;2022-11-20T06:53:12;1.67;;;1.43;;
982;SDS011;480;48.124;11.578;2022-11-20T06:55:43;3.00;;;2.03;;
982;SDS011;480;48.124;11.578;2022-11-20T06:58:10;1.43;;;1.33;;
982;SDS011;480;48.124;11.578;2022-11-20T07:00:38;1.30;;;1.20;;
982;SDS011;480;48.124;11.578;2022-11-20T07:03:05;2.67;;;2.07;;
982;SDS011;480;48.124;11.578;2022-11-20T07:05:33;3.47;;;1.87;;
982;SDS011;480;48.124;11.578;2022-11-20T07:08:00;1.73;;;1.53;;
982;SDS011;480;48.124;11.578;2022-11-20T07:10:27;2.00;;;1.90;;
982;SDS011;480;48.124;11.578;2022-11-20T07:12:56;1.50;;;1.40;;
982;SDS011;480;48.124;11.578;2022-11-20T07:15:23;1.83;;;1.63;;
982;SDS011;480;48.124;11.578;2022-11-20T07:17:51;2.00;;;1.80;;
982;SDS011;480;48.124;11.578;2022-11-20T07:20:20;2.00;;;1.90;;
982;SDS011;480;48.124;11.578;2022-11-20T07:22:47;1.77;;;1.67;;
982;SDS011;480;48.124;11.578;2022-11-20T07:25:20;2.37;;;2.00;;
982;SDS011;480;48.124;11.578;2022-11-20T07:27:48;2.80;;;2.27;;
982;SDS011;480;48.124;11.578;2022-11-20T07:30:17;2.43;;;2.23;;
982;SDS011;480;48.124;11.578;2022-11-20T07:32:45;2.13;;;1.93;;
982;SDS011;480;48.124;11.578;2022-11-20T07:35:13;2.30;;;2.10;;
982;SDS011;480;48.124;11.578;2022-11-20T07:37:40;2.23;;;2.03;;
982;SDS011;480;48.124;11.578;2022-11-20T07:40:07;2.50;;;2.30;;
982;SDS011;480;48.124;11.578;2022-11-20T07:42:34;2.53;;;2.00;;
982;SDS011;480;48.124;11.578;2022-11-20T07:45:01;2.90;;;2.50;;
982;SDS011;480;48.124;11.578;2022-11-20T07:47:34;2.40;;;2.20;;
982;SDS011;480;48.124;11.578;2022-11-20T07:50:01;2.80;;;2.50;;
982;SDS011;480;48.124;11.578;2022-11-20T07:52:29;1.60;;;1.40;;
982;SDS011;480;48.124;11.578;2022-11-20T07:54:56;5.93;;;2.57;;
982;SDS011;480;48.124;11.578;2022-11-20T07:57:23;2.20;;;2.00;;
982;SDS011;480;48.124;11.578;2022-11-20T07:59:50;2.27;;;2.10;;
982;SDS011;480;48.124;11.578;2022-11-20T08:02:17;2.67;;;2.43;;
982;SDS011;480;48.124;11.578;2022-11-20T08:04:45;1.93;;;1.77;;
982;SDS011;480;48.124;11.578;2022-11-20T08:07:12;1.67;;;1.57;;
982;SDS011;480;48.124;11.578;2022-11-20T08:09:39;1.60;;;1.47;;
982;SDS011;480;48.124;11.578;2022-11-20T08:12:06;2.27;;;2.17;;
982;SDS011;480;48.124;11.578;2022-11-20T08:14:51;2.00;;;1.63;;
982;SDS011;480;48.124;11.578;2022-11-20T08:17:18;2.80;;;1.80;;
982;SDS011;480;48.124;11.578;2022-11-20T08:19:46;2.13;;;1.90;;
982;SDS011;480;48.124;11.578;2022-11-20T08:22:13;1.43;;;1.33;;
982;SDS011;480;48.124;11.578;2022-11-20T08:24:41;1.67;;;1.57;;
982;SDS011;480;48.124;11.578;2022-11-20T08:27:08;1.50;;;1.40;;
982;SDS011;480;48.124;11.578;2022-11-20T08:29:34;1.57;;;1.43;;
982;SDS011;480;48.124;11.578;2022-11-20T08:32:02;1.97;;;1.53;;
982;SDS011;480;48.124;11.578;2022-11-20T08:34:29;2.40;;;1.70;;
982;SDS011;480;48.124;11.578;2022-11-20T08:36:57;3.30;;;1.83;;
982;SDS011;480;48.124;11.578;2022-11-20T08:39:24;2.30;;;1.60;;
982;SDS011;480;48.124;11.578;2022-11-20T08:41:51;2.57;;;2.37;;
982;SDS011;480;48.124;11.578;2022-11-20T08:44:18;2.47;;;2.27;;
982;SDS011;480;48.124;11.578;2022-11-20T08:46:45;1.97;;;1.47;;
982;SDS011;480;48.124;11.578;2022-11-20T08:49:13;1.80;;;1.70;;
982;SDS011;480;48.124;11.578;2022-11-20T08:51:40;2.80;;;1.50;;
982;SDS011;480;48.124;11.578;2022-11-20T08:54:09;1.80;;;1.37;;
982;SDS011;480;48.124;11.578;2022-11-20T08:56:36;1.60;;;1.50;;
982;SDS011;480;48.124;11.578;2022-11-20T08:59:04;1.63;;;1.53;;
982;SDS011;480;48.124;11.578;2022-11-20T09:01:31;1.90;;;1.67;;
982;SDS011;480;48.124;11.578;2022-11-20T09:03:58;1.93;;;1.80;;
982;SDS011;480;48.124;11.578;2022-11-20T09:06:25;1.67;;;1.57;;
982;SDS011;480;48.124;11.578;2022-11-20T09:08:52;2.03;;;1.93;;
982;SDS011;480;48.124;11.578;2022-11-20T09:11:21;1.40;;;1.30;;
982;SDS011;480;48.124;11.578;2022-11-20T09:13:48;1.80;;;1.70;;
982;SDS011;480;48.124;11.578;2022-11-20T09:16:15;1.20;;;0.90;;
982;SDS011;480;48.124;11.578;2022-11-20T09:18:42;1.37;;;1.27;;
982;SDS011;480;48.124;11.578;2022-11-20T09:21:10;1.77;;;1.40;;
982;SDS011;480;48.124;11.578;2022-11-20T09:23:38;2.90;;;1.60;;
982;SDS011;480;48.124;11.578;2022-11-20T09:26:07;1.70;;;1.60;;
982;SDS011;480;48.124;11.578;2022-11-20T09:28:37;1.20;;;1.10;;
982;SDS011;480;48.124;11.578;2022-11-20T09:31:05;1.37;;;1.13;;
982;SDS011;480;48.124;11.578;2022-11-20T09:33:32;1.53;;;1.43;;
982;SDS011;480;48.124;11.578;2022-11-20T09:35:59;1.80;;;1.70;;
982;SDS011;480;48.124;11.578;2022-11-20T09:38:26;1.20;;;1.10;;
982;SDS011;480;48.124;11.578;2022-11-20T09:40:55;1.30;;;1.30;;
982;SDS011;480;48.124;11.578;2022-11-20T09:43:27;2.07;;;1.40;;
982;SDS011;480;48.124;11.578;2022-11-20T09:46:07;1.07;;;1.00;;
982;SDS011;480;48.124;11.578;2022-11-20T09:48:42;1.47;;;1.37;;
982;SDS011;480;48.124;11.578;2022-11-20T09:51:23;1.40;;;1.10;;
982;SDS011;480;48.124;11.578;2022-11-20T09:54:01;1.27;;;1.17;;
982;SDS011;480;48.124;11.578;2022-11-20T09:56:39;1.40;;;1.30;;
982;SDS011;480;48.124;11.578;2022-11-20T09:59:12;1.57;;;1.00;;
982;SDS011;480;48.124;11.578;2022-11-20T10:01:51;1.47;;;0.93;;
982;SDS011;480;48.124;11.578;2022-11-20T10:04:20;1.30;;;1.20;;
982;SDS011;480;48.124;11.578;2022-11-20T10:06:50;1.20;;;1.10;;
982;SDS011;480;48.124;11.578;2022-11-20T10:09:22;1.87;;;1.60;;
982;SDS011;480;48.124;11.578;2022-11-20T10:11:59;1.23;;;1.13;;
982;SDS011;480;48.124;11.578;2022-11-20T10:14:42;2.20;;;1.20;;
982;SDS011;480;48.124;11.578;2022-11-20T10:17:26;5.80;;;1.90;;
982;SDS011;480;48.124;11.578;2022-11-20T10:20:12;0.93;;;0.90;;
982;SDS011;480;48.124;11.578;2022-11-20T10:22:47;1.67;;;1.13;;
982;SDS011;480;48.124;11.578;2022-11-20T10:25:23;1.10;;;0.90;;
982;SDS011;480;48.124;11.578;2022-11-20T10:28:10;0.80;;;0.80;;
982;SDS011;480;48.124;11.578;2022-11-20T10:31:08;3.13;;;1.40;;
982;SDS011;480;48.124;11.578;2022-11-20T10:33:40;2.40;;;1.20;;
982;SDS011;480;48.124;11.578;2022-11-20T10:36:14;2.43;;;1.33;;
982;SDS011;480;48.124;11.578;2022-11-20T10:38:46;1.13;;;1.03;;
982;SDS011;480;48.124;11.578;2022-11-20T10:41:20;1.17;;;1.07;;
982;SDS011;480;48.124;11.578;2022-11-20T10:43:52;1.57;;;1.47;;
982;SDS011;480;48.124;11.578;2022-11-20T10:46:26;1.43;;;1.10;;
982;SDS011;480;48.124;11.578;2022-11-20T10:49:04;1.40;;;1.13;;
982;SDS011;480;48.124;11.578;2022-11-20T10:51:40;1.90;;;1.20;;
982;SDS011;480;48.124;11.578;2022-11-20T10:54:20;1.40;;;1.30;;
982;SDS011;480;48.124;11.578;2022-11-20T10:56:56;3.90;;;1.17;;
982;SDS011;480;48.124;11.578;2022-11-20T11:02:23;1.20;;;1.10;;
982;SDS011;480;48.124;11.578;2022-11-20T11:04:52;1.47;;;1.07;;
982;SDS011;480;48.124;11.578;2022-11-20T11:07:21;2.43;;;1.80;;
982;SDS011;480;48.124;11.578;2022-11-20T11:09:52;1.53;;;1.20;;
982;SDS011;480;48.124;11.578;2022-11-20T11:12:20;1.30;;;1.20;;
982;SDS011;480;48.124;11.578;2022-11-20T11:14:51;1.63;;;1.40;;
982;SDS011;480;48.124;11.578;2022-11-20T11:17:21;1.20;;;1.10;;
982;SDS011;480;48.124;11.578;2022-11-20T11:20:06;1.83;;;1.13;;
982;SDS011;480;48.124;11.578;2022-11-20T11:22:43;2.00;;;1.27;;
982;SDS011;480;48.124;11.578;2022-11-20T11:28:03;1.20;;;1.10;;
982;SDS011;480;48.124;11.578;2022-11-20T11:30:45;1.43;;;1.33;;
982;SDS011;480;48.124;11.578;2022-11-20T11:33:18;1.47;;;1.37;;
982;SDS011;480;48.124;11.578;2022-11-20T11:35:49;1.53;;;1.20;;
982;SDS011;480;48.124;11.578;2022-11-20T11:38:19;3.17;;;2.10;;
982;SDS011;480;48.124;11.578;2022-11-20T11:40:49;1.57;;;1.40;;
982;SDS011;480;48.124;11.578;2022-11-20T11:43:19;1.40;;;1.27;;
982;SDS011;480;48.124;11.578;2022-11-20T11:46:12;1.90;;;1.53;;
982;SDS011;480;48.124;11.578;2022-11-20T11:49:00;1.63;;;1.57;;
982;SDS011;480;48.124;11.578;2022-11-20T11:51:41;1.73;;;1.53;;
982;SDS011;480;48.124;11.578;2022-11-20T11:54:17;1.43;;;1.33;;
982;SDS011;480;48.124;11.578;2022-11-20T11:56:46;1.77;;;1.30;;
982;SDS011;480;48.124;11.578;2022-11-20T11:59:16;1.37;;;1.27;;
982;SDS011;480;48.124;11.578;2022-11-20T12:01:50;1.20;;;1.10;;
982;SDS011;480;48.124;11.578;2022-11-20T12:04:23;3.50;;;2.20;;
982;SDS011;480;48.124;11.578;2022-11-20T12:07:08;1.33;;;1.23;;
982;SDS011;480;48.124;11.578;2022-11-20T12:09:42;1.40;;;1.30;;
982;SDS011;480;48.124;11.578;2022-11-20T12:12:15;2.50;;;1.97;;
982;SDS011;480;48.124;11.578;2022-11-20T12:14:46;1.93;;;1.73;;
982;SDS011;480;48.124;11.578;2022-11-20T12:17:17;2.10;;;1.20;;
982;SDS011;480;48.124;11.578;2022-11-20T12:19:44;2.10;;;1.40;;
982;SDS011;480;48.124;11.578;2022-11-20T12:22:16;0.93;;;0.80;;
982;SDS011;480;48.124;11.578;2022-11-20T12:24:53;1.10;;;1.00;;
982;SDS011;480;48.124;11.578;2022-11-20T12:27:35;1.20;;;1.10;;
982;SDS011;480;48.124;11.578;2022-11-20T12:30:20;1.70;;;1.33;;
982;SDS011;480;48.124;11.578;2022-11-20T12:33:02;1.60;;;1.50;;
982;SDS011;480;48.124;11.578;2022-11-20T12:35:52;1.97;;;1.77;;
982;SDS011;480;48.124;11.578;2022-11-20T12:41:46;1.53;;;1.43;;
982;SDS011;480;48.124;11.578;2022-11-20T12:44:45;1.30;;;1.20;;
982;SDS011;480;48.124;11.578;2022-11-20T12:47:39;1.70;;;1.23;;
982;SDS011;480;48.124;11.578;2022-11-20T12:50:17;1.90;;;1.37;;
982;SDS011;480;48.124;11.578;2022-11-20T12:52:56;1.70;;;1.60;;
982;SDS011;480;48.124;11.578;2022-11-20T12:55:34;1.30;;;1.20;;
982;SDS011;480;48.124;11.578;2022-11-20T12:58:10;1.53;;;1.37;;
982;SDS011;480;48.124;11.578;2022-11-20T13:00:47;1.40;;;1.03;;
982;SDS011;480;48.124;11.578;2022-11-20T13:03:34;1.37;;;1.27;;
982;SDS011;480;48.124;11.578;2022-11-20T13:06:10;1.27;;;1.00;;
982;SDS011;480;48.124;11.578;2022-11-20T13:08:40;1.50;;;1.40;;
982;SDS011;480;48.124;11.578;2022-11-20T13:11:12;3.20;;;2.03;;
982;SDS011;480;48.124;11.578;2022-11-20T13:13:45;1.20;;;1.10;;
982;SDS011;480;48.124;11.578;2022-11-20T13:16:28;1.90;;;1.43;;
982;SDS011;480;48.124;11.578;2022-11-20T13:19:02;2.10;;;1.00;;
982;SDS011;480;48.124;11.578;2022-11-20T13:21:37;1.93;;;1.83;;
982;SDS011;480;48.124;11.578;2022-11-20T13:24:06;1.70;;;1.60;;
982;SDS011;480;48.124;11.578;2022-11-20T13:26:35;1.40;;;1.30;;
982;SDS011;480;48.124;11.578;2022-11-20T13:29:04;2.07;;;1.83;;
982;SDS011;480;48.124;11.578;2022-11-20T13:31:36;2.17;;;1.50;;
982;SDS011;480;48.124;11.578;2022-11-20T13:34:11;1.83;;;1.50;;
982;SDS011;480;48.124;11.578;2022-11-20T13:36:48;1.50;;;1.40;;
982;SDS011;480;48.124;11.578;2022-11-20T13:39:23;2.33;;;1.60;;
982;SDS011;480;48.124;11.578;2022-11-20T13:41:56;1.70;;;1.23;;
982;SDS011;480;48.124;11.578;2022-11-20T13:44:26;1.67;;;1.40;;
982;SDS011;480;48.124;11.578;2022-11-20T13:46:59;2.10;;;1.73;;
982;SDS011;480;48.124;11.578;2022-11-20T13:49:28;1.10;;;1.07;;
982;SDS011;480;48.124;11.578;2022-11-20T13:52:01;1.73;;;1.60;;
982;SDS011;480;48.124;11.578;2022-11-20T13:54:51;4.10;;;2.17;;
982;SDS011;480;48.124;11.578;2022-11-20T13:57:41;2.93;;;2.00;;
982;SDS011;480;48.124;11.578;2022-11-20T14:00:20;3.30;;;2.00;;
982;SDS011;480;48.124;11.578;2022-11-20T14:02:52;1.53;;;1.40;;
982;SDS011;480;48.124;11.578;2022-11-20T14:05:27;2.00;;;1.80;;
982;SDS011;480;48.124;11.578;2022-11-20T14:07:57;1.53;;;1.43;;
982;SDS011;480;48.124;11.578;2022-11-20T14:10:26;2.07;;;1.57;;
982;SDS011;480;48.124;11.578;2022-11-20T14:12:55;1.63;;;1.53;;
982;SDS011;480;48.124;11.578;2022-11-20T14:15:26;1.70;;;1.60;;
982;SDS011;480;48.124;11.578;2022-11-20T14:17:55;1.70;;;1.50;;
982;SDS011;480;48.124;11.578;2022-11-20T14:20:23;2.43;;;2.20;;
982;SDS011;480;48.124;11.578;2022-11-20T14:22:53;1.80;;;1.70;;
982;SDS011;480;48.124;11.578;2022-11-20T14:25:21;1.83;;;1.73;;
982;SDS011;480;48.124;11.578;2022-11-20T14:27:52;1.93;;;1.77;;
982;SDS011;480;48.124;11.578;2022-11-20T14:30:23;1.43;;;1.33;;
982;SDS011;480;48.124;11.578;2022-11-20T14:32:53;2.80;;;1.40;;
982;SDS011;480;48.124;11.578;2022-11-20T14:35:23;2.80;;;1.93;;
982;SDS011;480;48.124;11.578;2022-11-20T14:37:52;1.83;;;1.73;;
982;SDS011;480;48.124;11.578;2022-11-20T14:40:25;2.20;;;1.87;;
982;SDS011;480;48.124;11.578;2022-11-20T14:42:54;1.47;;;1.40;;
982;SDS011;480;48.124;11.578;2022-11-20T14:45:24;1.97;;;1.87;;
982;SDS011;480;48.124;11.578;2022-11-20T14:47:52;1.73;;;1.40;;
982;SDS011;480;48.124;11.578;2022-11-20T14:50:22;4.10;;;1.77;;
982;SDS011;480;48.124;11.578;2022-11-20T14:52:55;1.60;;;1.10;;
982;SDS011;480;48.124;11.578;2022-11-20T14:55:29;1.83;;;1.40;;
982;SDS011;480;48.124;11.578;2022-11-20T14:57:58;1.47;;;1.37;;
982;SDS011;480;48.124;11.578;2022-11-20T15:00:28;1.33;;;1.23;;
982;SDS011;480;48.124;11.578;2022-11-20T15:02:56;1.20;;;1.10;;
982;SDS011;480;48.124;11.578;2022-11-20T15:05:24;1.00;;;0.90;;
982;SDS011;480;48.124;11.578;2022-11-20T15:08:10;1.73;;;1.10;;
982;SDS011;480;48.124;11.578;2022-11-20T15:10:39;1.20;;;1.10;;
982;SDS011;480;48.124;11.578;2022-11-20T15:13:13;1.10;;;1.00;;
982;SDS011;480;48.124;11.578;2022-11-20T15:15:46;0.63;;;0.63;;
982;SDS011;480;48.124;11.578;2022-11-20T15:18:15;1.00;;;0.87;;
982;SDS011;480;48.124;11.578;2022-11-20T15:20:44;0.60;;;0.60;;
982;SDS011;480;48.124;11.578;2022-11-20T15:23:13;1.03;;;1.03;;
982;SDS011;480;48.124;11.578;2022-11-20T15:25:43;1.53;;;0.90;;
982;SDS011;480;48.124;11.578;2022-11-20T15:28:13;1.20;;;1.10;;
982;SDS011;480;48.124;11.578;2022-11-20T15:30:45;1.73;;;0.93;;
982;SDS011;480;48.124;11.578;2022-11-20T15:33:13;0.87;;;0.87;;
982;SDS011;480;48.124;11.578;2022-11-20T15:35:40;1.57;;;1.27;;
982;SDS011;480;48.124;11.578;2022-11-20T15:38:08;5.13;;;3.23;;
982;SDS011;480;48.124;11.578;2022-11-20T15:40:35;2.20;;;2.00;;
982;SDS011;480;48.124;11.578;2022-11-20T15:43:02;1.90;;;1.70;;
982;SDS011;480;48.124;11.578;2022-11-20T15:45:32;1.40;;;1.30;;
982;SDS011;480;48.124;11.578;2022-11-20T15:48:04;1.63;;;1.53;;
982;SDS011;480;48.124;11.578;2022-11-20T15:50:37;1.83;;;1.30;;
982;SDS011;480;48.124;11.578;2022-11-20T15:53:05;1.50;;;1.40;;
982;SDS011;480;48.124;11.578;2022-11-20T15:55:38;3.93;;;1.80;;
982;SDS011;480;48.124;11.578;2022-11-20T15:58:05;1.87;;;1.60;;
982;SDS011;480;48.124;11.578;2022-11-20T16:00:32;1.80;;;1.60;;
982;SDS011;480;48.124;11.578;2022-11-20T16:02:59;1.47;;;1.37;;